sensor_id;sensor_type;location;lat;lon;timestamp;pressure;altitude;pressure_sealevel;temperature;humidity
69772;BME280;57046;45.988;18.664;2023-04-05T00:02:23;100946.19;;;4.91;51.55
69772;BME280;57046;45.988;18.664;2023-04-05T00:04:48;100933.59;;;4.97;51.68
69772;BME280;57046;45.988;18.664;2023-04-05T00:07:14;100938.69;;;4.93;51.91
69772;BME280;57046;45.988;18.664;2023-04-05T00:09:39;100933.34;;;4.83;52.17
69772;BME280;57046;45.988;18.664;2023-04-05T00:12:04;100940.06;;;4.66;51.77
69772;BME280;57046;45.988;18.664;2023-04-05T00:14:30;100944.59;;;4.60;52.39
69772;BME280;57046;45.988;18.664;2023-04-05T00:16:55;100940.88;;;4.61;52.21
69772;BME280;57046;45.988;18.664;2023-04-05T00:19:20;100930.69;;;4.68;51.80
69772;BME280;57046;45.988;18.664;2023-04-05T00:21:46;100937.38;;;4.60;52.14
69772;BME280;57046;45.988;18.664;2023-04-05T00:24:11;100933.09;;;4.70;52.61
69772;BME280;57046;45.988;18.664;2023-04-05T00:26:36;100934.72;;;4.66;52.87
69772;BME280;57046;45.988;18.664;2023-04-05T00:29:02;100937.13;;;4.62;52.43
69772;BME280;57046;45.988;18.664;2023-04-05T00:31:28;100925.91;;;4.55;52.87
69772;BME280;57046;45.988;18.664;2023-04-05T00:33:53;100926.41;;;4.47;52.54
69772;BME280;57046;45.988;18.664;2023-04-05T00:36:19;100924.81;;;4.51;53.06
69772;BME280;57046;45.988;18.664;2023-04-05T00:38:46;100938.19;;;4.31;52.95
69772;BME280;57046;45.988;18.664;2023-04-05T00:41:12;100923.75;;;4.22;53.48
69772;BME280;57046;45.988;18.664;2023-04-05T00:43:38;100913.84;;;4.27;53.03
69772;BME280;57046;45.988;18.664;2023-04-05T00:46:07;100911.97;;;4.23;53.08
69772;BME280;57046;45.988;18.664;2023-04-05T00:48:34;100920.53;;;4.35;52.43
69772;BME280;57046;45.988;18.664;2023-04-05T00:51:00;100917.03;;;4.19;53.07
69772;BME280;57046;45.988;18.664;2023-04-05T00:53:25;100926.13;;;4.23;53.09
69772;BME280;57046;45.988;18.664;2023-04-05T00:55:51;100926.41;;;4.12;52.93
69772;BME280;57046;45.988;18.664;2023-04-05T00:58:17;100925.88;;;4.25;53.48
69772;BME280;57046;45.988;18.664;2023-04-05T01:00:50;100925.88;;;4.20;53.47
69772;BME280;57046;45.988;18.664;2023-04-05T01:03:19;100918.34;;;4.01;52.89
69772;BME280;57046;45.988;18.664;2023-04-05T01:09:03;100929.06;;;4.06;53.09
69772;BME280;57046;45.988;18.664;2023-04-05T01:11:30;100915.44;;;4.08;53.29
69772;BME280;57046;45.988;18.664;2023-04-05T01:13:58;100923.72;;;4.06;53.17
69772;BME280;57046;45.988;18.664;2023-04-05T01:16:24;100922.13;;;4.10;52.74
69772;BME280;57046;45.988;18.664;2023-04-05T01:18:49;100928.81;;;4.13;52.55
69772;BME280;57046;45.988;18.664;2023-04-05T01:27:37;100927.97;;;3.97;53.62
69772;BME280;57046;45.988;18.664;2023-04-05T01:30:20;100931.72;;;3.96;53.18
69772;BME280;57046;45.988;18.664;2023-04-05T01:35:38;100931.63;;;3.71;53.73
69772;BME280;57046;45.988;18.664;2023-04-05T01:38:06;100932.22;;;3.83;53.59
69772;BME280;57046;45.988;18.664;2023-04-05T01:40:35;100941.56;;;3.86;54.02
69772;BME280;57046;45.988;18.664;2023-04-05T01:43:00;100925.81;;;3.89;54.04
69772;BME280;57046;45.988;18.664;2023-04-05T01:45:26;100925.31;;;3.97;54.65
69772;BME280;57046;45.988;18.664;2023-04-05T01:47:51;100921.81;;;3.97;55.35
69772;BME280;57046;45.988;18.664;2023-04-05T01:50:17;100931.72;;;4.01;56.06
69772;BME280;57046;45.988;18.664;2023-04-05T01:52:42;100930.38;;;3.99;56.85
69772;BME280;57046;45.988;18.664;2023-04-05T01:55:07;100917.53;;;3.96;56.78
69772;BME280;57046;45.988;18.664;2023-04-05T01:57:33;100926.34;;;3.91;57.54
69772;BME280;57046;45.988;18.664;2023-04-05T01:59:58;100924.19;;;3.88;57.06
69772;BME280;57046;45.988;18.664;2023-04-05T02:02:24;100938.63;;;3.82;55.47
69772;BME280;57046;45.988;18.664;2023-04-05T02:04:49;100926.03;;;3.78;56.06
69772;BME280;57046;45.988;18.664;2023-04-05T02:07:14;100934.84;;;3.63;55.87
69772;BME280;57046;45.988;18.664;2023-04-05T02:09:40;100937.22;;;3.59;56.42
69772;BME280;57046;45.988;18.664;2023-04-05T02:12:05;100942.19;;;3.41;56.48
69772;BME280;57046;45.988;18.664;2023-04-05T02:14:30;100944.09;;;3.45;56.35
69772;BME280;57046;45.988;18.664;2023-04-05T02:16:56;100942.75;;;3.43;56.79
69772;BME280;57046;45.988;18.664;2023-04-05T02:19:22;100945.19;;;3.49;56.47
69772;BME280;57046;45.988;18.664;2023-04-05T02:21:51;100940.38;;;3.46;58.32
69772;BME280;57046;45.988;18.664;2023-04-05T02:24:17;100941.44;;;3.45;58.02
69772;BME280;57046;45.988;18.664;2023-04-05T02:26:42;100938.19;;;3.38;57.43
69772;BME280;57046;45.988;18.664;2023-04-05T02:29:08;100938.19;;;3.33;58.73
69772;BME280;57046;45.988;18.664;2023-04-05T02:31:33;100942.09;;;3.16;58.51
69772;BME280;57046;45.988;18.664;2023-04-05T02:33:58;100943.25;;;2.88;59.52
69772;BME280;57046;45.988;18.664;2023-04-05T02:36:24;100944.41;;;3.02;59.75
69772;BME280;57046;45.988;18.664;2023-04-05T02:38:49;100949.41;;;2.88;60.21
69772;BME280;57046;45.988;18.664;2023-04-05T02:41:15;100944.00;;;2.78;61.03
69772;BME280;57046;45.988;18.664;2023-04-05T02:43:40;100949.31;;;2.78;60.77
69772;BME280;57046;45.988;18.664;2023-04-05T02:46:05;100953.47;;;2.64;61.84
69772;BME280;57046;45.988;18.664;2023-04-05T02:48:31;100959.53;;;2.54;62.54
69772;BME280;57046;45.988;18.664;2023-04-05T02:50:56;100956.59;;;2.56;63.28
69772;BME280;57046;45.988;18.664;2023-04-05T02:53:22;100952.28;;;2.50;62.80
69772;BME280;57046;45.988;18.664;2023-04-05T02:55:51;100953.41;;;2.54;62.85
69772;BME280;57046;45.988;18.664;2023-04-05T02:58:17;100954.75;;;2.56;63.13
69772;BME280;57046;45.988;18.664;2023-04-05T03:00:48;100966.16;;;2.52;62.98
69772;BME280;57046;45.988;18.664;2023-04-05T03:03:14;100950.97;;;2.52;62.99
69772;BME280;57046;45.988;18.664;2023-04-05T03:05:39;100963.56;;;2.57;63.00
69772;BME280;57046;45.988;18.664;2023-04-05T03:08:04;100915.97;;;2.12;63.38
69772;BME280;57046;45.988;18.664;2023-04-05T03:10:30;100960.75;;;2.42;63.22
69772;BME280;57046;45.988;18.664;2023-04-05T03:12:55;100960.75;;;2.42;63.45
69772;BME280;57046;45.988;18.664;2023-04-05T03:15:20;100958.88;;;2.42;63.32
69772;BME280;57046;45.988;18.664;2023-04-05T03:17:46;100957.25;;;2.36;63.57
69772;BME280;57046;45.988;18.664;2023-04-05T03:20:12;100970.03;;;2.34;63.59
69772;BME280;57046;45.988;18.664;2023-04-05T03:22:37;100951.81;;;2.26;63.53
69772;BME280;57046;45.988;18.664;2023-04-05T03:25:02;100968.13;;;2.30;63.96
69772;BME280;57046;45.988;18.664;2023-04-05T03:27:28;100959.09;;;2.36;63.46
69772;BME280;57046;45.988;18.664;2023-04-05T03:29:54;100964.50;;;2.14;63.56
69772;BME280;57046;45.988;18.664;2023-04-05T03:32:19;100954.69;;;2.20;63.76
69772;BME280;57046;45.988;18.664;2023-04-05T03:34:44;100961.63;;;2.21;63.38
69772;BME280;57046;45.988;18.664;2023-04-05T03:37:10;100949.25;;;2.10;63.73
69772;BME280;57046;45.988;18.664;2023-04-05T03:39:35;100960.94;;;2.03;63.67
69772;BME280;57046;45.988;18.664;2023-04-05T03:42:00;100968.16;;;2.08;63.72
69772;BME280;57046;45.988;18.664;2023-04-05T03:44:26;100961.78;;;2.09;63.13
69772;BME280;57046;45.988;18.664;2023-04-05T03:46:51;100963.03;;;2.01;63.55
69772;BME280;57046;45.988;18.664;2023-04-05T03:49:17;100963.91;;;2.07;63.43
69772;BME280;57046;45.988;18.664;2023-04-05T03:51:42;100972.56;;;1.97;63.61
69772;BME280;57046;45.988;18.664;2023-04-05T03:54:07;100967.53;;;2.01;63.54
69772;BME280;57046;45.988;18.664;2023-04-05T03:56:33;100976.00;;;1.93;63.56
69772;BME280;57046;45.988;18.664;2023-04-05T03:58:58;100974.66;;;1.90;63.25
69772;BME280;57046;45.988;18.664;2023-04-05T04:01:23;100976.88;;;1.77;64.26
69772;BME280;57046;45.988;18.664;2023-04-05T04:03:49;100978.63;;;1.66;64.59
69772;BME280;57046;45.988;18.664;2023-04-05T04:06:14;100971.88;;;1.59;64.70
69772;BME280;57046;45.988;18.664;2023-04-05T04:08:39;100991.66;;;1.68;64.60
69772;BME280;57046;45.988;18.664;2023-04-05T04:11:05;100992.59;;;1.57;64.73
69772;BME280;57046;45.988;18.664;2023-04-05T04:13:30;100982.94;;;1.50;65.16
69772;BME280;57046;45.988;18.664;2023-04-05T04:15:55;100984.16;;;1.43;65.16
69772;BME280;57046;45.988;18.664;2023-04-05T04:18:21;100985.22;;;1.42;65.34
69772;BME280;57046;45.988;18.664;2023-04-05T04:20:46;100999.97;;;1.49;64.92
69772;BME280;57046;45.988;18.664;2023-04-05T04:23:11;100986.66;;;1.49;64.94
69772;BME280;57046;45.988;18.664;2023-04-05T04:25:37;100989.00;;;1.46;64.42
69772;BME280;57046;45.988;18.664;2023-04-05T04:28:05;100995.03;;;1.58;64.03
69772;BME280;57046;45.988;18.664;2023-04-05T04:30:31;100986.22;;;1.58;63.92
69772;BME280;57046;45.988;18.664;2023-04-05T04:32:56;100990.53;;;1.64;72.77
69772;BME280;57046;45.988;18.664;2023-04-05T04:35:24;100989.41;;;1.76;63.98
69772;BME280;57046;45.988;18.664;2023-04-05T04:37:52;100993.34;;;1.52;63.85
69772;BME280;57046;45.988;18.664;2023-04-05T04:40:18;100988.69;;;1.64;64.29
69772;BME280;57046;45.988;18.664;2023-04-05T04:42:44;100989.34;;;1.49;64.07
69772;BME280;57046;45.988;18.664;2023-04-05T04:45:09;100991.63;;;1.63;64.21
69772;BME280;57046;45.988;18.664;2023-04-05T04:47:35;100997.63;;;1.53;64.38
69772;BME280;57046;45.988;18.664;2023-04-05T04:50:00;100991.19;;;1.49;64.46
69772;BME280;57046;45.988;18.664;2023-04-05T04:52:25;100998.41;;;1.53;64.34
69772;BME280;57046;45.988;18.664;2023-04-05T04:54:51;100996.13;;;1.62;64.02
69772;BME280;57046;45.988;18.664;2023-04-05T04:57:16;101003.25;;;1.57;64.37
69772;BME280;57046;45.988;18.664;2023-04-05T04:59:41;100994.56;;;1.44;64.16
69772;BME280;57046;45.988;18.664;2023-04-05T05:02:07;100996.00;;;1.52;64.26
69772;BME280;57046;45.988;18.664;2023-04-05T05:04:33;101000.84;;;1.55;64.19
69772;BME280;57046;45.988;18.664;2023-04-05T05:06:58;100998.84;;;1.45;64.06
69772;BME280;57046;45.988;18.664;2023-04-05T05:09:24;101000.34;;;1.58;64.25
69772;BME280;57046;45.988;18.664;2023-04-05T05:11:49;100995.75;;;1.53;64.31
69772;BME280;57046;45.988;18.664;2023-04-05T05:14:14;101003.13;;;1.68;63.91
69772;BME280;57046;45.988;18.664;2023-04-05T05:16:40;100994.47;;;1.56;63.95
69772;BME280;57046;45.988;18.664;2023-04-05T05:19:05;101005.88;;;1.73;64.24
69772;BME280;57046;45.988;18.664;2023-04-05T05:21:30;101016.88;;;1.82;64.07
69772;BME280;57046;45.988;18.664;2023-04-05T05:23:56;101013.38;;;1.76;63.60
69772;BME280;57046;45.988;18.664;2023-04-05T05:26:21;101006.22;;;1.82;63.85
69772;BME280;57046;45.988;18.664;2023-04-05T05:28:46;101009.50;;;1.89;63.57
69772;BME280;57046;45.988;18.664;2023-04-05T05:31:12;101013.53;;;1.91;63.85
69772;BME280;57046;45.988;18.664;2023-04-05T05:33:37;101013.09;;;1.99;63.40
69772;BME280;57046;45.988;18.664;2023-04-05T05:36:02;101015.81;;;2.04;63.38
69772;BME280;57046;45.988;18.664;2023-04-05T05:38:28;101012.19;;;2.11;63.49
69772;BME280;57046;45.988;18.664;2023-04-05T05:40:56;101019.38;;;2.10;62.88
69772;BME280;57046;45.988;18.664;2023-04-05T05:43:22;101018.03;;;2.13;62.72
69772;BME280;57046;45.988;18.664;2023-04-05T05:45:47;101026.25;;;2.33;63.03
69772;BME280;57046;45.988;18.664;2023-04-05T05:48:12;101028.63;;;2.29;62.32
69772;BME280;57046;45.988;18.664;2023-04-05T05:50:38;101022.84;;;2.37;62.50
69772;BME280;57046;45.988;18.664;2023-04-05T05:53:04;101029.28;;;2.41;62.60
69772;BME280;57046;45.988;18.664;2023-04-05T05:55:30;101020.41;;;2.36;60.78
69772;BME280;57046;45.988;18.664;2023-04-05T05:57:55;101018.25;;;2.33;60.71
69772;BME280;57046;45.988;18.664;2023-04-05T06:00:21;101018.88;;;2.40;60.32
69772;BME280;57046;45.988;18.664;2023-04-05T06:02:46;101017.81;;;2.41;60.52
69772;BME280;57046;45.988;18.664;2023-04-05T06:05:11;101024.19;;;2.40;60.05
69772;BME280;57046;45.988;18.664;2023-04-05T06:07:37;101033.94;;;2.56;60.00
69772;BME280;57046;45.988;18.664;2023-04-05T06:10:06;101024.41;;;2.60;60.13
69772;BME280;57046;45.988;18.664;2023-04-05T06:12:32;101019.03;;;2.55;59.52
69772;BME280;57046;45.988;18.664;2023-04-05T06:14:58;101023.13;;;2.68;59.68
69772;BME280;57046;45.988;18.664;2023-04-05T06:17:23;101019.22;;;2.75;59.25
69772;BME280;57046;45.988;18.664;2023-04-05T06:19:48;101018.69;;;2.78;58.38
69772;BME280;57046;45.988;18.664;2023-04-05T06:22:14;101020.34;;;2.84;58.67
69772;BME280;57046;45.988;18.664;2023-04-05T06:24:39;101013.75;;;2.97;58.54
69772;BME280;57046;45.988;18.664;2023-04-05T06:27:04;101014.63;;;3.02;58.72
69772;BME280;57046;45.988;18.664;2023-04-05T06:29:30;100979.78;;;2.82;58.30
69772;BME280;57046;45.988;18.664;2023-04-05T06:31:55;101016.25;;;3.08;57.96
69772;BME280;57046;45.988;18.664;2023-04-05T06:34:21;101011.81;;;3.24;58.62
69772;BME280;57046;45.988;18.664;2023-04-05T06:36:46;101014.31;;;3.36;59.19
69772;BME280;57046;45.988;18.664;2023-04-05T06:39:11;101008.69;;;3.37;58.23
69772;BME280;57046;45.988;18.664;2023-04-05T06:41:37;101007.44;;;3.50;58.73
69772;BME280;57046;45.988;18.664;2023-04-05T06:44:02;100993.84;;;3.62;57.29
69772;BME280;57046;45.988;18.664;2023-04-05T06:46:27;101013.66;;;3.61;55.98
69772;BME280;57046;45.988;18.664;2023-04-05T06:48:53;101007.50;;;3.65;56.17
69772;BME280;57046;45.988;18.664;2023-04-05T06:51:19;101001.91;;;3.72;57.44
69772;BME280;57046;45.988;18.664;2023-04-05T06:53:44;101007.81;;;3.74;54.87
69772;BME280;57046;45.988;18.664;2023-04-05T06:56:09;101007.84;;;3.79;54.99
69772;BME280;57046;45.988;18.664;2023-04-05T06:58:35;100994.19;;;3.70;54.54
69772;BME280;57046;45.988;18.664;2023-04-05T07:01:00;101002.00;;;3.87;54.59
69772;BME280;57046;45.988;18.664;2023-04-05T07:03:26;100999.91;;;4.04;55.61
69772;BME280;57046;45.988;18.664;2023-04-05T07:05:57;101011.72;;;4.18;56.56
69772;BME280;57046;45.988;18.664;2023-04-05T07:08:22;101014.41;;;4.23;52.95
69772;BME280;57046;45.988;18.664;2023-04-05T07:10:49;101023.50;;;4.27;52.80
69772;BME280;57046;45.988;18.664;2023-04-05T07:13:15;101009.06;;;4.33;53.52
69772;BME280;57046;45.988;18.664;2023-04-05T07:15:41;101025.66;;;4.25;54.04
69772;BME280;57046;45.988;18.664;2023-04-05T07:18:07;101012.28;;;4.25;52.87
69772;BME280;57046;45.988;18.664;2023-04-05T07:20:32;101017.38;;;4.37;53.26
69772;BME280;57046;45.988;18.664;2023-04-05T07:22:57;101021.41;;;4.54;51.99
69772;BME280;57046;45.988;18.664;2023-04-05T07:25:23;101028.66;;;4.59;53.42
69772;BME280;57046;45.988;18.664;2023-04-05T07:27:49;101015.28;;;4.59;52.14
69772;BME280;57046;45.988;18.664;2023-04-05T07:30:14;101023.31;;;4.69;51.60
69772;BME280;57046;45.988;18.664;2023-04-05T07:32:39;101026.81;;;4.90;53.33
69772;BME280;57046;45.988;18.664;2023-04-05T07:35:05;101022.50;;;4.99;50.10
69772;BME280;57046;45.988;18.664;2023-04-05T07:37:31;101021.16;;;5.01;50.69
69772;BME280;57046;45.988;18.664;2023-04-05T07:39:56;101018.22;;;5.13;52.85
69772;BME280;57046;45.988;18.664;2023-04-05T07:42:21;101023.03;;;5.11;50.53
69772;BME280;57046;45.988;18.664;2023-04-05T07:44:47;101028.38;;;5.01;50.22
69772;BME280;57046;45.988;18.664;2023-04-05T07:47:12;101017.13;;;5.04;51.11
69772;BME280;57046;45.988;18.664;2023-04-05T07:49:37;101016.63;;;5.02;50.71
69772;BME280;57046;45.988;18.664;2023-04-05T07:52:03;101013.66;;;5.08;49.02
69772;BME280;57046;45.988;18.664;2023-04-05T07:54:31;101006.97;;;5.16;49.38
69772;BME280;57046;45.988;18.664;2023-04-05T07:56:57;101012.81;;;5.28;49.13
69772;BME280;57046;45.988;18.664;2023-04-05T07:59:22;101013.34;;;5.40;49.59
69772;BME280;57046;45.988;18.664;2023-04-05T08:01:48;101017.88;;;5.50;49.88
69772;BME280;57046;45.988;18.664;2023-04-05T08:04:13;101014.63;;;5.58;49.57
69772;BME280;57046;45.988;18.664;2023-04-05T08:06:39;101009.28;;;5.53;47.34
69772;BME280;57046;45.988;18.664;2023-04-05T08:09:04;101009.81;;;5.60;48.93
69772;BME280;57046;45.988;18.664;2023-04-05T08:11:30;101007.59;;;5.77;48.60
69772;BME280;57046;45.988;18.664;2023-04-05T08:13:55;101005.97;;;5.86;47.75
69772;BME280;57046;45.988;18.664;2023-04-05T08:16:21;101005.72;;;5.88;47.91
69772;BME280;57046;45.988;18.664;2023-04-05T08:18:46;101009.13;;;6.08;47.77
69772;BME280;57046;45.988;18.664;2023-04-05T08:21:11;101006.94;;;6.16;46.88
69772;BME280;57046;45.988;18.664;2023-04-05T08:23:37;101013.88;;;6.22;46.46
69772;BME280;57046;45.988;18.664;2023-04-05T08:26:02;101000.72;;;6.20;46.41
69772;BME280;57046;45.988;18.664;2023-04-05T08:28:28;101011.38;;;6.35;46.16
69772;BME280;57046;45.988;18.664;2023-04-05T08:30:53;101007.59;;;6.36;46.23
69772;BME280;57046;45.988;18.664;2023-04-05T08:33:19;101011.00;;;6.47;48.00
69772;BME280;57046;45.988;18.664;2023-04-05T08:35:44;100999.38;;;6.61;45.08
69772;BME280;57046;45.988;18.664;2023-04-05T08:38:09;101020.38;;;6.54;45.31
69772;BME280;57046;45.988;18.664;2023-04-05T08:40:45;101023.53;;;6.67;46.02
69772;BME280;57046;45.988;18.664;2023-04-05T08:43:27;100978.47;;;6.53;45.07
69772;BME280;57046;45.988;18.664;2023-04-05T08:45:58;101016.88;;;6.93;45.51
69772;BME280;57046;45.988;18.664;2023-04-05T08:48:25;101020.69;;;6.87;43.93
69772;BME280;57046;45.988;18.664;2023-04-05T08:50:51;101014.50;;;6.86;43.98
69772;BME280;57046;45.988;18.664;2023-04-05T08:53:18;101025.09;;;7.01;45.32
69772;BME280;57046;45.988;18.664;2023-04-05T08:55:47;101020.97;;;7.14;45.62
69772;BME280;57046;45.988;18.664;2023-04-05T08:58:13;101022.28;;;7.16;43.71
69772;BME280;57046;45.988;18.664;2023-04-05T09:00:39;101021.47;;;7.21;42.24
69772;BME280;57046;45.988;18.664;2023-04-05T09:03:05;101025.97;;;7.26;42.66
69772;BME280;57046;45.988;18.664;2023-04-05T09:05:35;100983.88;;;7.16;42.68
69772;BME280;57046;45.988;18.664;2023-04-05T09:08:01;101017.22;;;7.39;42.43
69772;BME280;57046;45.988;18.664;2023-04-05T09:10:28;101013.59;;;7.25;43.52
69772;BME280;57046;45.988;18.664;2023-04-05T09:12:54;100987.16;;;7.37;44.89
69772;BME280;57046;45.988;18.664;2023-04-05T09:15:20;101002.94;;;7.67;43.75
69772;BME280;57046;45.988;18.664;2023-04-05T09:17:47;101003.75;;;7.67;41.34
69772;BME280;57046;45.988;18.664;2023-04-05T09:20:12;101011.84;;;7.39;40.60
69772;BME280;57046;45.988;18.664;2023-04-05T09:22:42;101010.97;;;7.48;41.09
69772;BME280;57046;45.988;18.664;2023-04-05T09:25:08;101011.47;;;7.74;42.49
69772;BME280;57046;45.988;18.664;2023-04-05T09:27:33;101015.34;;;7.87;40.56
69772;BME280;57046;45.988;18.664;2023-04-05T09:29:59;101006.94;;;7.69;41.67
69772;BME280;57046;45.988;18.664;2023-04-05T09:32:25;101004.41;;;8.02;41.14
69772;BME280;57046;45.988;18.664;2023-04-05T09:34:52;101000.69;;;8.16;41.09
69772;BME280;57046;45.988;18.664;2023-04-05T09:37:19;101007.72;;;8.55;43.79
69772;BME280;57046;45.988;18.664;2023-04-05T09:39:46;100995.69;;;8.66;42.46
69772;BME280;57046;45.988;18.664;2023-04-05T09:42:13;101004.09;;;8.46;39.44
69772;BME280;57046;45.988;18.664;2023-04-05T09:47:18;101006.09;;;8.54;39.95
69772;BME280;57046;45.988;18.664;2023-04-05T09:49:44;100993.38;;;8.59;40.63
69772;BME280;57046;45.988;18.664;2023-04-05T09:52:20;101011.41;;;8.78;39.77
69772;BME280;57046;45.988;18.664;2023-04-05T09:54:46;101007.72;;;8.55;39.58
69772;BME280;57046;45.988;18.664;2023-04-05T09:57:11;100985.69;;;8.85;39.33
69772;BME280;57046;45.988;18.664;2023-04-05T09:59:40;100991.25;;;9.07;40.04
69772;BME280;57046;45.988;18.664;2023-04-05T10:02:05;100993.19;;;9.34;40.39
69772;BME280;57046;45.988;18.664;2023-04-05T10:04:41;100993.88;;;9.53;39.46
69772;BME280;57046;45.988;18.664;2023-04-05T10:07:11;100989.59;;;9.39;38.60
69772;BME280;57046;45.988;18.664;2023-04-05T10:09:42;100993.53;;;9.14;38.76
69772;BME280;57046;45.988;18.664;2023-04-05T10:12:08;100975.78;;;9.40;37.97
69772;BME280;57046;45.988;18.664;2023-04-05T10:14:37;100975.09;;;9.76;40.00
69772;BME280;57046;45.988;18.664;2023-04-05T10:17:15;100967.63;;;9.73;38.06
69772;BME280;57046;45.988;18.664;2023-04-05T10:20:15;100967.81;;;9.62;38.80
69772;BME280;57046;45.988;18.664;2023-04-05T10:27:46;100955.03;;;10.04;37.06
69772;BME280;57046;45.988;18.664;2023-04-05T10:30:12;100968.78;;;9.53;37.50
69772;BME280;57046;45.988;18.664;2023-04-05T10:36:17;100970.59;;;9.57;36.68
69772;BME280;57046;45.988;18.664;2023-04-05T10:39:06;100966.69;;;9.77;38.26
69772;BME280;57046;45.988;18.664;2023-04-05T10:41:40;100920.50;;;9.92;38.50
69772;BME280;57046;45.988;18.664;2023-04-05T10:44:09;100956.47;;;10.01;38.44
69772;BME280;57046;45.988;18.664;2023-04-05T10:46:35;100953.00;;;9.46;35.81
69772;BME280;57046;45.988;18.664;2023-04-05T10:49:21;100950.50;;;9.50;36.50
69772;BME280;57046;45.988;18.664;2023-04-05T10:51:47;100946.44;;;9.39;36.38
69772;BME280;57046;45.988;18.664;2023-04-05T10:54:13;100936.28;;;9.99;37.12
69772;BME280;57046;45.988;18.664;2023-04-05T10:56:39;100954.03;;;10.49;37.57
69772;BME280;57046;45.988;18.664;2023-04-05T10:59:05;100952.72;;;10.25;36.00
69772;BME280;57046;45.988;18.664;2023-04-05T11:01:32;100949.41;;;9.78;35.33
69772;BME280;57046;45.988;18.664;2023-04-05T11:04:15;100954.09;;;9.86;35.89
69772;BME280;57046;45.988;18.664;2023-04-05T11:06:41;100948.69;;;9.86;36.58
69772;BME280;57046;45.988;18.664;2023-04-05T11:09:13;100946.94;;;10.04;35.83
69772;BME280;57046;45.988;18.664;2023-04-05T11:11:40;100945.44;;;10.11;35.00
69772;BME280;57046;45.988;18.664;2023-04-05T11:14:25;100944.78;;;9.92;35.21
69772;BME280;57046;45.988;18.664;2023-04-05T11:16:58;100947.59;;;9.87;33.94
69772;BME280;57046;45.988;18.664;2023-04-05T11:19:47;100943.63;;;9.71;34.01
69772;BME280;57046;45.988;18.664;2023-04-05T11:22:24;100935.41;;;10.26;36.17
69772;BME280;57046;45.988;18.664;2023-04-05T11:24:54;100933.00;;;10.68;35.28
69772;BME280;57046;45.988;18.664;2023-04-05T11:27:31;100941.50;;;10.76;35.20
69772;BME280;57046;45.988;18.664;2023-04-05T11:29:58;100945.59;;;10.29;35.35
69772;BME280;57046;45.988;18.664;2023-04-05T11:32:38;100926.53;;;10.11;37.21
69772;BME280;57046;45.988;18.664;2023-04-05T11:35:11;100939.66;;;10.04;36.58
69772;BME280;57046;45.988;18.664;2023-04-05T11:40:28;100954.47;;;10.07;35.92
69772;BME280;57046;45.988;18.664;2023-04-05T11:43:08;100934.75;;;10.06;36.73
69772;BME280;57046;45.988;18.664;2023-04-05T11:45:35;100935.59;;;10.51;35.35
69772;BME280;57046;45.988;18.664;2023-04-05T11:48:09;100926.41;;;10.52;33.45
69772;BME280;57046;45.988;18.664;2023-04-05T11:50:36;100930.50;;;10.72;33.10
69772;BME280;57046;45.988;18.664;2023-04-05T11:53:14;100930.28;;;10.91;33.13
69772;BME280;57046;45.988;18.664;2023-04-05T11:55:43;100937.91;;;11.19;34.26
69772;BME280;57046;45.988;18.664;2023-04-05T11:58:19;100915.69;;;11.31;35.84
69772;BME280;57046;45.988;18.664;2023-04-05T12:00:45;100915.69;;;11.31;34.92
69772;BME280;57046;45.988;18.664;2023-04-05T12:03:15;100925.81;;;10.86;34.84
69772;BME280;57046;45.988;18.664;2023-04-05T12:08:13;100917.88;;;10.90;35.40
69772;BME280;57046;45.988;18.664;2023-04-05T12:10:38;100914.16;;;11.08;34.66
69772;BME280;57046;45.988;18.664;2023-04-05T12:13:03;100917.91;;;11.29;34.23
69772;BME280;57046;45.988;18.664;2023-04-05T12:15:29;100921.78;;;11.06;33.06
69772;BME280;57046;45.988;18.664;2023-04-05T12:17:54;100915.25;;;11.46;33.70
69772;BME280;57046;45.988;18.664;2023-04-05T12:20:22;100903.00;;;11.49;32.43
69772;BME280;57046;45.988;18.664;2023-04-05T12:22:49;100906.59;;;11.75;32.64
69772;BME280;57046;45.988;18.664;2023-04-05T12:25:16;100895.94;;;12.21;32.16
69772;BME280;57046;45.988;18.664;2023-04-05T12:27:42;100888.09;;;12.46;34.59
69772;BME280;57046;45.988;18.664;2023-04-05T12:30:19;100903.09;;;11.92;32.76
69772;BME280;57046;45.988;18.664;2023-04-05T12:32:54;100894.66;;;11.76;32.70
69772;BME280;57046;45.988;18.664;2023-04-05T12:35:21;100905.41;;;11.11;32.79
69772;BME280;57046;45.988;18.664;2023-04-05T12:37:49;100896.59;;;10.97;33.34
69772;BME280;57046;45.988;18.664;2023-04-05T12:40:22;100904.84;;;11.31;32.96
69772;BME280;57046;45.988;18.664;2023-04-05T12:42:47;100897.19;;;11.72;32.66
69772;BME280;57046;45.988;18.664;2023-04-05T12:45:13;100895.13;;;11.95;31.55
69772;BME280;57046;45.988;18.664;2023-04-05T12:47:55;100884.00;;;11.97;31.83
69772;BME280;57046;45.988;18.664;2023-04-05T12:50:25;100882.53;;;12.08;32.29
69772;BME280;57046;45.988;18.664;2023-04-05T12:52:58;100881.91;;;12.02;32.53
69772;BME280;57046;45.988;18.664;2023-04-05T12:55:27;100882.63;;;11.43;32.38
69772;BME280;57046;45.988;18.664;2023-04-05T12:57:55;100886.25;;;11.47;33.57
69772;BME280;57046;45.988;18.664;2023-04-05T13:00:21;100888.91;;;11.30;33.30
69772;BME280;57046;45.988;18.664;2023-04-05T13:02:50;100898.22;;;11.06;33.59
69772;BME280;57046;45.988;18.664;2023-04-05T13:05:16;100891.28;;;11.14;33.43
69772;BME280;57046;45.988;18.664;2023-04-05T13:07:41;100883.59;;;11.64;33.34
69772;BME280;57046;45.988;18.664;2023-04-05T13:10:07;100886.53;;;11.85;31.95
69772;BME280;57046;45.988;18.664;2023-04-05T13:12:32;100878.25;;;12.07;32.31
69772;BME280;57046;45.988;18.664;2023-04-05T13:14:58;100881.13;;;12.02;31.44
69772;BME280;57046;45.988;18.664;2023-04-05T13:17:23;100884.28;;;12.30;32.46